PWSweather.com
Personal Weather Stations
Station Observations
NAGEO265NE
Bedzin GrodziecPL 42-506

Bedzin GrodziecPL 42-506

Lat: 50.347, Lon: 19.079

Elevation: 948

Station Type: WH1080

http://www.meteo-grodziec.pl/

High Low Average
Temperature 62.2°F16.8°C 53.4°F11.9°C 56.5°F13.6°C
Dew Point 57.4°F14.1°C 51.1°F10.6°C 54.2°F12.3°C
Winds 3.0 mph 4.8 kmh Calm Calm Calm SWCalm SW
Wind Gusts 10.0 mph16.1 kmh -- 2.0 mph3.2 kmh
Humidity 98% 79% 92%
Pressure 29.84 in1010.5 mb 29.63 in1003.4 mb -
Precipitation 0.92 in23.4 mm - -
Hour Temp Dew Point Humidity Winds Wind Gusts Pressure Precip Precip Rate Daily Precip Total
12:00 AM 56.3°F13.5°C 54.9°F12.7°C 95% 1.0 mph NW1.6 kmh NW 5.0 mph8.0 kmh 29.63 in1003.4 mb 0.12 in3.0 mm 0.00 in0.0 mm 0.12 in3.0 mm
12:05 AM 56.1°F13.4°C 54.9°F12.7°C 95% 2.0 mph NW3.2 kmh NW 7.0 mph11.3 kmh 29.64 in1003.7 mb 0.11 in2.8 mm 0.00 in0.0 mm 0.12 in3.0 mm
12:10 AM 56.1°F13.4°C 54.9°F12.7°C 95% 2.0 mph NW3.2 kmh NW 7.0 mph11.3 kmh 29.64 in1003.7 mb 0.11 in2.8 mm 0.00 in0.0 mm 0.13 in3.3 mm
12:15 AM 56.1°F13.4°C 55.0°F12.8°C 96% 2.0 mph NW3.2 kmh NW 7.0 mph11.3 kmh 29.64 in1003.7 mb 0.12 in3.0 mm 0.12 in3.0 mm 0.14 in3.6 mm
12:20 AM 56.1°F13.4°C 55.0°F12.8°C 96% 1.0 mph NW1.6 kmh NW 7.0 mph11.3 kmh 29.65 in1004.1 mb 0.13 in3.3 mm 0.12 in3.0 mm 0.15 in3.8 mm
12:25 AM 56.1°F13.4°C 55.0°F12.8°C 96% 1.0 mph NW1.6 kmh NW 4.0 mph6.4 kmh 29.65 in1004.1 mb 0.13 in3.3 mm 0.00 in0.0 mm 0.16 in4.1 mm
12:30 AM 56.1°F13.4°C 55.0°F12.8°C 96% 1.0 mph NW1.6 kmh NW 4.0 mph6.4 kmh 29.64 in1003.7 mb 0.13 in3.3 mm 0.00 in0.0 mm 0.17 in4.3 mm
12:35 AM 56.1°F13.4°C 55.0°F12.8°C 96% 1.0 mph NW1.6 kmh NW 4.0 mph6.4 kmh 29.64 in1003.7 mb 0.12 in3.0 mm 0.00 in0.0 mm 0.17 in4.3 mm
12:40 AM 56.1°F13.4°C 55.0°F12.8°C 96% Calm Calm 4.0 mph6.4 kmh 29.65 in1004.1 mb 0.10 in2.5 mm 0.00 in0.0 mm 0.17 in4.3 mm
12:45 AM 56.3°F13.5°C 55.2°F12.9°C 96% Calm Calm -- 29.65 in1004.1 mb 0.08 in2.0 mm 0.00 in0.0 mm 0.17 in4.3 mm
12:50 AM 56.3°F13.5°C 55.2°F12.9°C 96% Calm Calm 1.0 mph1.6 kmh 29.65 in1004.1 mb 0.08 in2.0 mm 0.00 in0.0 mm 0.18 in4.6 mm
12:55 AM 56.3°F13.5°C 55.2°F12.9°C 96% Calm Calm 2.0 mph3.2 kmh 29.65 in1004.1 mb 0.07 in1.8 mm 0.00 in0.0 mm 0.18 in4.6 mm
01:00 AM 56.1°F13.4°C 55.0°F12.8°C 96% Calm Calm 3.0 mph4.8 kmh 29.65 in1004.1 mb 0.06 in1.5 mm 0.00 in0.0 mm 0.18 in4.6 mm
01:05 AM 56.3°F13.5°C 55.2°F12.9°C 96% Calm Calm 3.0 mph4.8 kmh 29.65 in1004.1 mb 0.06 in1.5 mm 0.00 in0.0 mm 0.19 in4.8 mm
01:10 AM 56.1°F13.4°C 55.0°F12.8°C 96% Calm Calm 1.0 mph1.6 kmh 29.65 in1004.1 mb 0.06 in1.5 mm 0.00 in0.0 mm 0.19 in4.8 mm
01:15 AM 56.1°F13.4°C 55.0°F12.8°C 96% Calm Calm 1.0 mph1.6 kmh 29.65 in1004.1 mb 0.05 in1.3 mm 0.00 in0.0 mm 0.19 in4.8 mm
01:20 AM 56.1°F13.4°C 55.0°F12.8°C 96% Calm Calm 1.0 mph1.6 kmh 29.65 in1004.1 mb 0.05 in1.3 mm 0.00 in0.0 mm 0.20 in5.1 mm
01:25 AM 55.8°F13.2°C 54.7°F12.6°C 96% Calm Calm 2.0 mph3.2 kmh 29.66 in1004.4 mb 0.04 in1.0 mm 0.00 in0.0 mm 0.20 in5.1 mm
01:30 AM 55.8°F13.2°C 54.7°F12.6°C 96% Calm Calm 2.0 mph3.2 kmh 29.66 in1004.4 mb 0.04 in1.0 mm 0.00 in0.0 mm 0.20 in5.1 mm
01:35 AM 55.8°F13.2°C 54.5°F12.5°C 96% Calm Calm -- 29.66 in1004.4 mb 0.03 in0.8 mm 0.00 in0.0 mm 0.20 in5.1 mm
01:40 AM 55.8°F13.2°C 54.9°F12.7°C 97% Calm Calm 1.0 mph1.6 kmh 29.65 in1004.1 mb 0.03 in0.8 mm 0.00 in0.0 mm 0.20 in5.1 mm
01:45 AM 55.6°F13.1°C 54.3°F12.4°C 96% Calm Calm 1.0 mph1.6 kmh 29.66 in1004.4 mb 0.04 in1.0 mm 0.12 in3.0 mm 0.21 in5.3 mm
01:50 AM 55.4°F13.0°C 54.5°F12.5°C 97% Calm Calm 1.0 mph1.6 kmh 29.66 in1004.4 mb 0.03 in0.8 mm 0.00 in0.0 mm 0.21 in5.3 mm
01:55 AM 55.4°F13.0°C 54.5°F12.5°C 97% Calm Calm -- 29.66 in1004.4 mb 0.03 in0.8 mm 0.00 in0.0 mm 0.21 in5.3 mm
02:00 AM 55.2°F12.9°C 54.5°F12.5°C 97% Calm Calm -- 29.66 in1004.4 mb 0.04 in1.0 mm 0.01 in0.3 mm 0.22 in5.6 mm
02:05 AM 55.2°F12.9°C 54.5°F12.5°C 97% Calm Calm -- 29.66 in1004.4 mb 0.03 in0.8 mm 0.00 in0.0 mm 0.22 in5.6 mm
02:10 AM 55.4°F13.0°C 54.5°F12.5°C 97% Calm Calm -- 29.66 in1004.4 mb 0.03 in0.8 mm 0.00 in0.0 mm 0.22 in5.6 mm
02:15 AM 55.4°F13.0°C 54.5°F12.5°C 97% Calm Calm -- 29.66 in1004.4 mb 0.03 in0.8 mm 0.00 in0.0 mm 0.23 in5.8 mm
02:20 AM 55.4°F13.0°C 54.5°F12.5°C 97% Calm Calm 1.0 mph1.6 kmh 29.66 in1004.4 mb 0.03 in0.8 mm 0.00 in0.0 mm 0.23 in5.8 mm
02:25 AM 55.2°F12.9°C 54.5°F12.5°C 97% Calm Calm 1.0 mph1.6 kmh 29.66 in1004.4 mb 0.03 in0.8 mm 0.00 in0.0 mm 0.23 in5.8 mm
02:30 AM 55.2°F12.9°C 54.5°F12.5°C 97% Calm Calm 1.0 mph1.6 kmh 29.66 in1004.4 mb 0.03 in0.8 mm 0.00 in0.0 mm 0.24 in6.1 mm
02:35 AM 55.2°F12.9°C 54.5°F12.5°C 97% Calm Calm 1.0 mph1.6 kmh 29.65 in1004.1 mb 0.03 in0.8 mm 0.00 in0.0 mm 0.24 in6.1 mm
02:40 AM 55.4°F13.0°C 54.5°F12.5°C 97% Calm Calm -- 29.65 in1004.1 mb 0.04 in1.0 mm 0.12 in3.0 mm 0.24 in6.1 mm
02:45 AM 55.4°F13.0°C 54.5°F12.5°C 97% Calm Calm 1.0 mph1.6 kmh 29.66 in1004.4 mb 0.04 in1.0 mm 0.00 in0.0 mm 0.25 in6.4 mm
02:50 AM 55.4°F13.0°C 54.5°F12.5°C 97% Calm Calm 3.0 mph4.8 kmh 29.66 in1004.4 mb 0.05 in1.3 mm 0.12 in3.0 mm 0.26 in6.6 mm
02:55 AM 55.2°F12.9°C 54.5°F12.5°C 97% Calm Calm 3.0 mph4.8 kmh 29.67 in1004.7 mb 0.06 in1.5 mm 0.12 in3.0 mm 0.27 in6.9 mm
03:00 AM 55.2°F12.9°C 54.5°F12.5°C 97% Calm Calm 2.0 mph3.2 kmh 29.67 in1004.7 mb 0.06 in1.5 mm 0.00 in0.0 mm 0.28 in7.1 mm
03:05 AM 55.4°F13.0°C 54.5°F12.5°C 97% Calm Calm 1.0 mph1.6 kmh 29.67 in1004.7 mb 0.06 in1.5 mm 0.00 in0.0 mm 0.28 in7.1 mm
03:10 AM 55.6°F13.1°C 54.7°F12.6°C 97% Calm Calm 1.0 mph1.6 kmh 29.67 in1004.7 mb 0.07 in1.8 mm 0.12 in3.0 mm 0.29 in7.4 mm
03:15 AM 55.6°F13.1°C 54.7°F12.6°C 97% Calm Calm 1.0 mph1.6 kmh 29.66 in1004.4 mb 0.07 in1.8 mm 0.00 in0.0 mm 0.30 in7.6 mm
03:20 AM 55.4°F13.0°C 54.5°F12.5°C 97% Calm Calm 2.0 mph3.2 kmh 29.66 in1004.4 mb 0.07 in1.8 mm 0.00 in0.0 mm 0.30 in7.6 mm
03:25 AM 55.2°F12.9°C 54.5°F12.5°C 97% Calm Calm 2.0 mph3.2 kmh 29.66 in1004.4 mb 0.07 in1.8 mm 0.00 in0.0 mm 0.31 in7.9 mm
03:30 AM 55.2°F12.9°C 54.3°F12.4°C 97% Calm Calm 2.0 mph3.2 kmh 29.66 in1004.4 mb 0.08 in2.0 mm 0.12 in3.0 mm 0.31 in7.9 mm
03:35 AM 54.9°F12.7°C 54.1°F12.3°C 97% Calm Calm 3.0 mph4.8 kmh 29.66 in1004.4 mb 0.09 in2.3 mm 0.12 in3.0 mm 0.32 in8.1 mm
03:40 AM 54.7°F12.6°C 53.8°F12.1°C 97% Calm Calm 3.0 mph4.8 kmh 29.66 in1004.4 mb 0.09 in2.3 mm 0.00 in0.0 mm 0.33 in8.4 mm
03:45 AM 54.7°F12.6°C 53.8°F12.1°C 97% Calm Calm 1.0 mph1.6 kmh 29.66 in1004.4 mb 0.09 in2.3 mm 0.00 in0.0 mm 0.34 in8.6 mm
03:50 AM 54.7°F12.6°C 53.8°F12.1°C 97% Calm Calm 1.0 mph1.6 kmh 29.65 in1004.1 mb 0.09 in2.3 mm 0.00 in0.0 mm 0.35 in8.9 mm
03:55 AM 54.7°F12.6°C 53.8°F12.1°C 97% Calm Calm 1.0 mph1.6 kmh 29.65 in1004.1 mb 0.09 in2.3 mm 0.00 in0.0 mm 0.36 in9.1 mm
04:00 AM 54.5°F12.5°C 53.6°F12.0°C 97% Calm Calm 1.0 mph1.6 kmh 29.65 in1004.1 mb 0.09 in2.3 mm 0.00 in0.0 mm 0.37 in9.4 mm
04:05 AM 54.1°F12.3°C 53.4°F11.9°C 97% Calm Calm 1.0 mph1.6 kmh 29.65 in1004.1 mb 0.09 in2.3 mm 0.00 in0.0 mm 0.37 in9.4 mm
04:10 AM 54.1°F12.3°C 53.4°F11.9°C 97% Calm Calm 1.0 mph1.6 kmh 29.65 in1004.1 mb 0.09 in2.3 mm 0.00 in0.0 mm 0.38 in9.7 mm
04:15 AM 54.1°F12.3°C 53.4°F11.9°C 97% Calm Calm 1.0 mph1.6 kmh 29.65 in1004.1 mb 0.09 in2.3 mm 0.00 in0.0 mm 0.39 in9.9 mm
04:20 AM 54.3°F12.4°C 53.4°F11.9°C 97% Calm Calm 2.0 mph3.2 kmh 29.65 in1004.1 mb 0.09 in2.3 mm 0.00 in0.0 mm 0.39 in9.9 mm
04:25 AM 54.1°F12.3°C 53.4°F11.9°C 97% Calm Calm 2.0 mph3.2 kmh 29.64 in1003.7 mb 0.09 in2.3 mm 0.00 in0.0 mm 0.39 in9.9 mm
04:30 AM 54.1°F12.3°C 53.2°F11.8°C 97% Calm Calm 3.0 mph4.8 kmh 29.64 in1003.7 mb 0.09 in2.3 mm 0.00 in0.0 mm 0.40 in10.2 mm
04:35 AM 54.0°F12.2°C 53.1°F11.7°C 97% Calm Calm 3.0 mph4.8 kmh 29.64 in1003.7 mb 0.09 in2.3 mm 0.00 in0.0 mm 0.41 in10.4 mm
04:40 AM 53.8°F12.1°C 52.9°F11.6°C 97% 1.0 mph NW1.6 kmh NW 3.0 mph4.8 kmh 29.64 in1003.7 mb 0.09 in2.3 mm 0.00 in0.0 mm 0.42 in10.7 mm
04:45 AM 53.6°F12.0°C 52.7°F11.5°C 97% 1.0 mph NW1.6 kmh NW 3.0 mph4.8 kmh 29.64 in1003.7 mb 0.09 in2.3 mm 0.00 in0.0 mm 0.43 in10.9 mm
04:50 AM 53.8°F12.1°C 52.9°F11.6°C 97% Calm Calm 3.0 mph4.8 kmh 29.64 in1003.7 mb 0.08 in2.0 mm 0.00 in0.0 mm 0.43 in10.9 mm
04:55 AM 53.8°F12.1°C 52.9°F11.6°C 97% Calm Calm 1.0 mph1.6 kmh 29.64 in1003.7 mb 0.08 in2.0 mm 0.00 in0.0 mm 0.44 in11.2 mm
05:00 AM 53.8°F12.1°C 52.9°F11.6°C 97% Calm Calm 1.0 mph1.6 kmh 29.64 in1003.7 mb 0.08 in2.0 mm 0.00 in0.0 mm 0.45 in11.4 mm
05:05 AM 54.0°F12.2°C 53.1°F11.7°C 97% Calm Calm -- 29.64 in1003.7 mb 0.09 in2.3 mm 0.12 in3.0 mm 0.46 in11.7 mm
05:10 AM 54.0°F12.2°C 53.2°F11.8°C 97% Calm Calm -- 29.64 in1003.7 mb 0.09 in2.3 mm 0.00 in0.0 mm 0.46 in11.7 mm
05:15 AM 54.1°F12.3°C 53.2°F11.8°C 97% Calm Calm -- 29.64 in1003.7 mb 0.09 in2.3 mm 0.00 in0.0 mm 0.47 in11.9 mm
05:20 AM 54.1°F12.3°C 53.4°F11.9°C 97% Calm Calm -- 29.64 in1003.7 mb 0.09 in2.3 mm 0.00 in0.0 mm 0.48 in12.2 mm
05:25 AM 54.1°F12.3°C 53.2°F11.8°C 97% Calm Calm -- 29.65 in1004.1 mb 0.09 in2.3 mm 0.00 in0.0 mm 0.49 in12.4 mm
05:30 AM 54.0°F12.2°C 53.2°F11.8°C 97% Calm Calm 1.0 mph1.6 kmh 29.65 in1004.1 mb 0.09 in2.3 mm 0.00 in0.0 mm 0.50 in12.7 mm
05:35 AM 54.0°F12.2°C 53.2°F11.8°C 97% Calm Calm 1.0 mph1.6 kmh 29.65 in1004.1 mb 0.09 in2.3 mm 0.00 in0.0 mm 0.50 in12.7 mm
05:40 AM 54.0°F12.2°C 53.2°F11.8°C 97% Calm Calm 1.0 mph1.6 kmh 29.65 in1004.1 mb 0.09 in2.3 mm 0.00 in0.0 mm 0.51 in13.0 mm
05:45 AM 54.0°F12.2°C 53.2°F11.8°C 97% Calm Calm 1.0 mph1.6 kmh 29.65 in1004.1 mb 0.09 in2.3 mm 0.00 in0.0 mm 0.52 in13.2 mm
05:50 AM 54.0°F12.2°C 53.2°F11.8°C 97% Calm Calm 2.0 mph3.2 kmh 29.65 in1004.1 mb 0.09 in2.3 mm 0.00 in0.0 mm 0.52 in13.2 mm
05:55 AM 54.1°F12.3°C 53.2°F11.8°C 97% Calm Calm 2.0 mph3.2 kmh 29.65 in1004.1 mb 0.09 in2.3 mm 0.00 in0.0 mm 0.53 in13.5 mm
06:00 AM 54.1°F12.3°C 53.2°F11.8°C 97% Calm Calm 2.0 mph3.2 kmh 29.65 in1004.1 mb 0.08 in2.0 mm 0.00 in0.0 mm 0.53 in13.5 mm
06:05 AM 54.1°F12.3°C 53.4°F11.9°C 97% Calm Calm 1.0 mph1.6 kmh 29.65 in1004.1 mb 0.08 in2.0 mm 0.00 in0.0 mm 0.54 in13.7 mm
06:10 AM 54.3°F12.4°C 53.4°F11.9°C 97% Calm Calm 1.0 mph1.6 kmh 29.65 in1004.1 mb 0.08 in2.0 mm 0.00 in0.0 mm 0.54 in13.7 mm
06:15 AM 54.3°F12.4°C 53.4°F11.9°C 97% Calm Calm 1.0 mph1.6 kmh 29.65 in1004.1 mb 0.09 in2.3 mm 0.12 in3.0 mm 0.56 in14.2 mm
06:20 AM 54.3°F12.4°C 53.6°F12.0°C 97% Calm Calm 2.0 mph3.2 kmh 29.66 in1004.4 mb 0.09 in2.3 mm 0.00 in0.0 mm 0.57 in14.5 mm
06:25 AM 54.3°F12.4°C 53.6°F12.0°C 97% Calm Calm 2.0 mph3.2 kmh 29.66 in1004.4 mb 0.09 in2.3 mm 0.00 in0.0 mm 0.58 in14.7 mm
06:30 AM 54.3°F12.4°C 53.6°F12.0°C 97% Calm Calm 2.0 mph3.2 kmh 29.66 in1004.4 mb 0.10 in2.5 mm 0.12 in3.0 mm 0.60 in15.2 mm
06:35 AM 54.3°F12.4°C 53.4°F11.9°C 97% 1.0 mph SW1.6 kmh SW 5.0 mph8.0 kmh 29.66 in1004.4 mb 0.10 in2.5 mm 0.00 in0.0 mm 0.61 in15.5 mm
06:40 AM 54.3°F12.4°C 53.4°F11.9°C 97% 1.0 mph SW1.6 kmh SW 5.0 mph8.0 kmh 29.66 in1004.4 mb 0.10 in2.5 mm 0.00 in0.0 mm 0.61 in15.5 mm
06:45 AM 54.1°F12.3°C 53.4°F11.9°C 97% 1.0 mph SW1.6 kmh SW 3.0 mph4.8 kmh 29.66 in1004.4 mb 0.09 in2.3 mm 0.00 in0.0 mm 0.61 in15.5 mm
06:50 AM 54.1°F12.3°C 53.4°F11.9°C 97% 1.0 mph SW1.6 kmh SW 3.0 mph4.8 kmh 29.66 in1004.4 mb 0.10 in2.5 mm 0.12 in3.0 mm 0.62 in15.7 mm
06:55 AM 54.1°F12.3°C 53.4°F11.9°C 97% 1.0 mph SW1.6 kmh SW 5.0 mph8.0 kmh 29.66 in1004.4 mb 0.10 in2.5 mm 0.00 in0.0 mm 0.63 in16.0 mm
07:00 AM 54.1°F12.3°C 53.4°F11.9°C 97% 1.0 mph SW1.6 kmh SW 5.0 mph8.0 kmh 29.66 in1004.4 mb 0.10 in2.5 mm 0.00 in0.0 mm 0.63 in16.0 mm
07:05 AM 54.1°F12.3°C 53.4°F11.9°C 97% Calm Calm 2.0 mph3.2 kmh 29.67 in1004.7 mb 0.10 in2.5 mm 0.00 in0.0 mm 0.64 in16.3 mm
07:10 AM 54.3°F12.4°C 53.4°F11.9°C 97% Calm Calm 2.0 mph3.2 kmh 29.67 in1004.7 mb 0.09 in2.3 mm 0.00 in0.0 mm 0.64 in16.3 mm
07:15 AM 54.3°F12.4°C 53.4°F11.9°C 97% 1.0 mph SW1.6 kmh SW 4.0 mph6.4 kmh 29.67 in1004.7 mb 0.08 in2.0 mm 0.00 in0.0 mm 0.64 in16.3 mm
07:20 AM 54.3°F12.4°C 53.8°F12.1°C 98% 1.0 mph SW1.6 kmh SW 4.0 mph6.4 kmh 29.67 in1004.7 mb 0.07 in1.8 mm 0.00 in0.0 mm 0.65 in16.5 mm
07:25 AM 54.3°F12.4°C 53.8°F12.1°C 98% 1.0 mph S1.6 kmh S 4.0 mph6.4 kmh 29.67 in1004.7 mb 0.06 in1.5 mm 0.00 in0.0 mm 0.65 in16.5 mm
07:30 AM 54.3°F12.4°C 53.8°F12.1°C 98% 1.0 mph SSW1.6 kmh SSW 4.0 mph6.4 kmh 29.68 in1005.1 mb 0.06 in1.5 mm 0.00 in0.0 mm 0.66 in16.8 mm
07:35 AM 54.3°F12.4°C 53.8°F12.1°C 98% 1.0 mph SSW1.6 kmh SSW 4.0 mph6.4 kmh 29.68 in1005.1 mb 0.06 in1.5 mm 0.00 in0.0 mm 0.67 in17.0 mm
07:40 AM 54.3°F12.4°C 53.8°F12.1°C 98% 1.0 mph SSW1.6 kmh SSW 4.0 mph6.4 kmh 29.68 in1005.1 mb 0.06 in1.5 mm 0.00 in0.0 mm 0.67 in17.0 mm
07:45 AM 54.3°F12.4°C 53.8°F12.1°C 98% 1.0 mph SSW1.6 kmh SSW 4.0 mph6.4 kmh 29.68 in1005.1 mb 0.06 in1.5 mm 0.00 in0.0 mm 0.68 in17.3 mm
07:50 AM 54.3°F12.4°C 53.8°F12.1°C 98% 1.0 mph SSW1.6 kmh SSW 4.0 mph6.4 kmh 29.68 in1005.1 mb 0.06 in1.5 mm 0.00 in0.0 mm 0.69 in17.5 mm
07:55 AM 54.3°F12.4°C 53.8°F12.1°C 98% 1.0 mph S1.6 kmh S 4.0 mph6.4 kmh 29.68 in1005.1 mb 0.06 in1.5 mm 0.00 in0.0 mm 0.69 in17.5 mm
08:00 AM 54.3°F12.4°C 53.8°F12.1°C 98% Calm Calm 2.0 mph3.2 kmh 29.68 in1005.1 mb 0.07 in1.8 mm 0.01 in0.3 mm 0.70 in17.8 mm
08:05 AM 54.3°F12.4°C 53.8°F12.1°C 98% Calm Calm 2.0 mph3.2 kmh 29.68 in1005.1 mb 0.06 in1.5 mm 0.00 in0.0 mm 0.70 in17.8 mm
08:10 AM 54.3°F12.4°C 53.8°F12.1°C 98% Calm Calm 2.0 mph3.2 kmh 29.68 in1005.1 mb 0.07 in1.8 mm 0.12 in3.0 mm 0.71 in18.0 mm
08:15 AM 54.5°F12.5°C 54.0°F12.2°C 98% Calm Calm 1.0 mph1.6 kmh 29.68 in1005.1 mb 0.09 in2.3 mm 0.24 in6.1 mm 0.72 in18.3 mm
08:20 AM 54.7°F12.6°C 54.0°F12.2°C 98% Calm Calm 1.0 mph1.6 kmh 29.68 in1005.1 mb 0.09 in2.3 mm 0.00 in0.0 mm 0.74 in18.8 mm
08:25 AM 54.7°F12.6°C 54.0°F12.2°C 98% Calm Calm 1.0 mph1.6 kmh 29.68 in1005.1 mb 0.11 in2.8 mm 0.24 in6.1 mm 0.76 in19.3 mm
08:30 AM 54.7°F12.6°C 54.0°F12.2°C 98% Calm Calm 1.0 mph1.6 kmh 29.68 in1005.1 mb 0.11 in2.8 mm 0.00 in0.0 mm 0.77 in19.6 mm
08:35 AM 54.7°F12.6°C 54.1°F12.3°C 98% Calm Calm 2.0 mph3.2 kmh 29.68 in1005.1 mb 0.11 in2.8 mm 0.00 in0.0 mm 0.78 in19.8 mm
08:40 AM 54.7°F12.6°C 54.1°F12.3°C 98% Calm Calm 2.0 mph3.2 kmh 29.69 in1005.4 mb 0.13 in3.3 mm 0.24 in6.1 mm 0.80 in20.3 mm
08:45 AM 54.7°F12.6°C 54.1°F12.3°C 98% Calm Calm 2.0 mph3.2 kmh 29.69 in1005.4 mb 0.13 in3.3 mm 0.00 in0.0 mm 0.80 in20.3 mm
08:50 AM 54.9°F12.7°C 54.3°F12.4°C 98% Calm Calm 2.0 mph3.2 kmh 29.69 in1005.4 mb 0.13 in3.3 mm 0.00 in0.0 mm 0.81 in20.6 mm
08:55 AM 54.9°F12.7°C 54.3°F12.4°C 98% Calm Calm 2.0 mph3.2 kmh 29.69 in1005.4 mb 0.13 in3.3 mm 0.00 in0.0 mm 0.82 in20.8 mm
09:00 AM 54.9°F12.7°C 54.3°F12.4°C 98% Calm Calm 2.0 mph3.2 kmh 29.69 in1005.4 mb 0.12 in3.0 mm 0.00 in0.0 mm 0.82 in20.8 mm
09:05 AM 54.9°F12.7°C 54.3°F12.4°C 98% Calm Calm 2.0 mph3.2 kmh 29.69 in1005.4 mb 0.11 in2.8 mm 0.00 in0.0 mm 0.82 in20.8 mm
09:10 AM 55.0°F12.8°C 54.5°F12.5°C 98% Calm Calm 1.0 mph1.6 kmh 29.69 in1005.4 mb 0.10 in2.5 mm 0.00 in0.0 mm 0.82 in20.8 mm
09:15 AM 55.0°F12.8°C 54.5°F12.5°C 98% Calm Calm 1.0 mph1.6 kmh 29.69 in1005.4 mb 0.09 in2.3 mm 0.00 in0.0 mm 0.82 in20.8 mm
09:20 AM 55.0°F12.8°C 54.5°F12.5°C 98% Calm Calm 2.0 mph3.2 kmh 29.69 in1005.4 mb 0.08 in2.0 mm 0.00 in0.0 mm 0.83 in21.1 mm
09:25 AM 55.2°F12.9°C 54.7°F12.6°C 98% Calm Calm 2.0 mph3.2 kmh 29.69 in1005.4 mb 0.07 in1.8 mm 0.00 in0.0 mm 0.83 in21.1 mm
09:30 AM 55.2°F12.9°C 54.7°F12.6°C 98% Calm Calm 2.0 mph3.2 kmh 29.69 in1005.4 mb 0.06 in1.5 mm 0.00 in0.0 mm 0.83 in21.1 mm
09:35 AM 55.2°F12.9°C 54.7°F12.6°C 98% Calm Calm 2.0 mph3.2 kmh 29.69 in1005.4 mb 0.06 in1.5 mm 0.00 in0.0 mm 0.84 in21.3 mm
09:40 AM 55.4°F13.0°C 54.9°F12.7°C 98% Calm Calm 2.0 mph3.2 kmh 29.70 in1005.8 mb 0.05 in1.3 mm 0.00 in0.0 mm 0.84 in21.3 mm
09:45 AM 55.6°F13.1°C 54.9°F12.7°C 98% Calm Calm 2.0 mph3.2 kmh 29.69 in1005.4 mb 0.05 in1.3 mm 0.00 in0.0 mm 0.85 in21.6 mm
09:50 AM 55.8°F13.2°C 55.2°F12.9°C 98% Calm Calm 2.0 mph3.2 kmh 29.69 in1005.4 mb 0.04 in1.0 mm 0.00 in0.0 mm 0.85 in21.6 mm
09:55 AM 55.9°F13.3°C 55.4°F13.0°C 98% Calm Calm -- 29.69 in1005.4 mb 0.03 in0.8 mm 0.00 in0.0 mm 0.85 in21.6 mm
10:00 AM 56.1°F13.4°C 55.6°F13.1°C 98% Calm Calm 3.0 mph4.8 kmh 29.69 in1005.4 mb 0.03 in0.8 mm 0.00 in0.0 mm 0.85 in21.6 mm
10:05 AM 56.1°F13.4°C 55.6°F13.1°C 98% Calm Calm 3.0 mph4.8 kmh 29.69 in1005.4 mb 0.03 in0.8 mm 0.00 in0.0 mm 0.85 in21.6 mm
10:10 AM 56.1°F13.4°C 55.6°F13.1°C 98% 1.0 mph WSW1.6 kmh WSW 3.0 mph4.8 kmh 29.69 in1005.4 mb 0.03 in0.8 mm 0.00 in0.0 mm 0.85 in21.6 mm
10:15 AM 56.3°F13.5°C 55.8°F13.2°C 98% Calm Calm 3.0 mph4.8 kmh 29.69 in1005.4 mb 0.04 in1.0 mm 0.12 in3.0 mm 0.86 in21.8 mm
10:20 AM 56.5°F13.6°C 55.8°F13.2°C 98% Calm Calm 2.0 mph3.2 kmh 29.69 in1005.4 mb 0.03 in0.8 mm 0.00 in0.0 mm 0.86 in21.8 mm
10:25 AM 56.5°F13.6°C 55.8°F13.2°C 98% Calm Calm 2.0 mph3.2 kmh 29.69 in1005.4 mb 0.04 in1.0 mm 0.12 in3.0 mm 0.87 in22.1 mm
10:30 AM 56.5°F13.6°C 55.9°F13.3°C 98% Calm Calm 2.0 mph3.2 kmh 29.69 in1005.4 mb 0.03 in0.8 mm 0.00 in0.0 mm 0.87 in22.1 mm
10:35 AM 56.7°F13.7°C 56.1°F13.4°C 98% Calm Calm 3.0 mph4.8 kmh 29.69 in1005.4 mb 0.03 in0.8 mm 0.00 in0.0 mm 0.87 in22.1 mm
10:40 AM 56.8°F13.8°C 56.3°F13.5°C 98% Calm Calm 3.0 mph4.8 kmh 29.70 in1005.8 mb 0.03 in0.8 mm 0.00 in0.0 mm 0.87 in22.1 mm
10:45 AM 57.0°F13.9°C 56.5°F13.6°C 98% Calm Calm 2.0 mph3.2 kmh 29.70 in1005.8 mb 0.02 in0.5 mm 0.00 in0.0 mm 0.87 in22.1 mm
10:50 AM 57.2°F14.0°C 56.7°F13.7°C 98% Calm Calm 2.0 mph3.2 kmh 29.70 in1005.8 mb 0.02 in0.5 mm 0.00 in0.0 mm 0.87 in22.1 mm
10:55 AM 57.0°F13.9°C 56.5°F13.6°C 98% Calm Calm 3.0 mph4.8 kmh 29.70 in1005.8 mb 0.03 in0.8 mm 0.12 in3.0 mm 0.88 in22.4 mm
11:00 AM 57.0°F13.9°C 56.5°F13.6°C 98% Calm Calm 3.0 mph4.8 kmh 29.70 in1005.8 mb 0.04 in1.0 mm 0.01 in0.3 mm 0.89 in22.6 mm
11:05 AM 56.8°F13.8°C 56.1°F13.4°C 97% Calm Calm 4.0 mph6.4 kmh 29.70 in1005.8 mb 0.04 in1.0 mm 0.00 in0.0 mm 0.89 in22.6 mm
11:10 AM 57.0°F13.9°C 56.5°F13.6°C 98% 1.0 mph NW1.6 kmh NW 4.0 mph6.4 kmh 29.70 in1005.8 mb 0.04 in1.0 mm 0.00 in0.0 mm 0.89 in22.6 mm
11:15 AM 57.2°F14.0°C 56.3°F13.5°C 97% Calm Calm 2.0 mph3.2 kmh 29.70 in1005.8 mb 0.04 in1.0 mm 0.00 in0.0 mm 0.90 in22.9 mm
11:20 AM 57.0°F13.9°C 56.3°F13.5°C 97% Calm Calm 2.0 mph3.2 kmh 29.70 in1005.8 mb 0.04 in1.0 mm 0.00 in0.0 mm 0.90 in22.9 mm
11:25 AM 56.8°F13.8°C 56.1°F13.4°C 97% Calm Calm 3.0 mph4.8 kmh 29.70 in1005.8 mb 0.04 in1.0 mm 0.00 in0.0 mm 0.91 in23.1 mm
11:30 AM 56.8°F13.8°C 56.1°F13.4°C 97% 1.0 mph NW1.6 kmh NW 3.0 mph4.8 kmh 29.70 in1005.8 mb 0.04 in1.0 mm 0.00 in0.0 mm 0.91 in23.1 mm
11:35 AM 57.0°F13.9°C 56.1°F13.4°C 97% Calm Calm 3.0 mph4.8 kmh 29.70 in1005.8 mb 0.03 in0.8 mm 0.00 in0.0 mm 0.91 in23.1 mm
11:40 AM 57.2°F14.0°C 56.3°F13.5°C 97% Calm Calm 3.0 mph4.8 kmh 29.70 in1005.8 mb 0.03 in0.8 mm 0.00 in0.0 mm 0.91 in23.1 mm
11:45 AM 57.6°F14.2°C 56.8°F13.8°C 97% Calm Calm 2.0 mph3.2 kmh 29.71 in1006.1 mb 0.04 in1.0 mm 0.12 in3.0 mm 0.91 in23.1 mm
11:50 AM 57.7°F14.3°C 56.8°F13.8°C 97% Calm Calm 2.0 mph3.2 kmh 29.71 in1006.1 mb 0.04 in1.0 mm 0.00 in0.0 mm 0.91 in23.1 mm
11:55 AM 57.9°F14.4°C 57.0°F13.9°C 97% Calm Calm 2.0 mph3.2 kmh 29.71 in1006.1 mb 0.03 in0.8 mm 0.00 in0.0 mm 0.91 in23.1 mm
12:00 PM 58.1°F14.5°C 57.0°F13.9°C 96% Calm Calm 1.0 mph1.6 kmh 29.71 in1006.1 mb 0.02 in0.5 mm 0.00 in0.0 mm 0.91 in23.1 mm
12:05 PM 58.5°F14.7°C 57.2°F14.0°C 96% Calm Calm 1.0 mph1.6 kmh 29.71 in1006.1 mb 0.02 in0.5 mm 0.00 in0.0 mm 0.91 in23.1 mm
12:10 PM 58.3°F14.6°C 56.8°F13.8°C 95% Calm Calm 1.0 mph1.6 kmh 29.71 in1006.1 mb 0.02 in0.5 mm 0.00 in0.0 mm 0.91 in23.1 mm
12:15 PM 58.5°F14.7°C 57.0°F13.9°C 95% Calm Calm 2.0 mph3.2 kmh 29.71 in1006.1 mb 0.02 in0.5 mm 0.00 in0.0 mm 0.91 in23.1 mm
12:20 PM 58.5°F14.7°C 56.8°F13.8°C 94% Calm Calm 2.0 mph3.2 kmh 29.71 in1006.1 mb 0.02 in0.5 mm 0.00 in0.0 mm 0.91 in23.1 mm
12:25 PM 58.8°F14.9°C 56.8°F13.8°C 93% Calm Calm 2.0 mph3.2 kmh 29.71 in1006.1 mb 0.01 in0.3 mm 0.00 in0.0 mm 0.91 in23.1 mm
12:30 PM 59.2°F15.1°C 57.0°F13.9°C 93% 1.0 mph NNW1.6 kmh NNW 3.0 mph4.8 kmh 29.71 in1006.1 mb 0.01 in0.3 mm 0.00 in0.0 mm 0.91 in23.1 mm
12:35 PM 59.5°F15.3°C 57.2°F14.0°C 92% Calm Calm 3.0 mph4.8 kmh 29.71 in1006.1 mb 0.01 in0.3 mm 0.00 in0.0 mm 0.91 in23.1 mm
12:40 PM 59.5°F15.3°C 56.8°F13.8°C 91% Calm Calm 1.0 mph1.6 kmh 29.71 in1006.1 mb 0.01 in0.3 mm 0.00 in0.0 mm 0.91 in23.1 mm
12:45 PM 59.7°F15.4°C 56.8°F13.8°C 90% Calm Calm 2.0 mph3.2 kmh 29.71 in1006.1 mb 0.00 in0.0 mm 0.00 in0.0 mm 0.91 in23.1 mm
12:50 PM 59.9°F15.5°C 56.3°F13.5°C 88% Calm Calm 2.0 mph3.2 kmh 29.71 in1006.1 mb 0.00 in0.0 mm 0.00 in0.0 mm 0.91 in23.1 mm
12:55 PM 60.3°F15.7°C 56.7°F13.7°C 88% 1.0 mph NW1.6 kmh NW 2.0 mph3.2 kmh 29.71 in1006.1 mb 0.00 in0.0 mm 0.00 in0.0 mm 0.91 in23.1 mm
01:00 PM 60.1°F15.6°C 56.3°F13.5°C 87% Calm Calm 3.0 mph4.8 kmh 29.71 in1006.1 mb 0.00 in0.0 mm 0.00 in0.0 mm 0.91 in23.1 mm
01:05 PM 59.9°F15.5°C 55.9°F13.3°C 87% Calm Calm 3.0 mph4.8 kmh 29.71 in1006.1 mb 0.00 in0.0 mm 0.00 in0.0 mm 0.91 in23.1 mm
01:10 PM 60.1°F15.6°C 56.5°F13.6°C 88% Calm Calm 1.0 mph1.6 kmh 29.71 in1006.1 mb 0.00 in0.0 mm 0.00 in0.0 mm 0.91 in23.1 mm
01:15 PM 60.3°F15.7°C 57.0°F13.9°C 89% Calm Calm 1.0 mph1.6 kmh 29.71 in1006.1 mb 0.00 in0.0 mm 0.00 in0.0 mm 0.91 in23.1 mm
01:20 PM 60.8°F16.0°C 56.8°F13.8°C 87% Calm Calm -- 29.71 in1006.1 mb 0.00 in0.0 mm 0.00 in0.0 mm 0.91 in23.1 mm
01:25 PM 61.2°F16.2°C 57.2°F14.0°C 87% Calm Calm 1.0 mph1.6 kmh 29.71 in1006.1 mb 0.00 in0.0 mm 0.00 in0.0 mm 0.91 in23.1 mm
01:30 PM 61.5°F16.4°C 57.4°F14.1°C 86% Calm Calm 1.0 mph1.6 kmh 29.71 in1006.1 mb 0.00 in0.0 mm 0.00 in0.0 mm 0.91 in23.1 mm
01:35 PM 61.3°F16.3°C 56.5°F13.6°C 84% Calm Calm 2.0 mph3.2 kmh 29.71 in1006.1 mb 0.00 in0.0 mm 0.00 in0.0 mm 0.91 in23.1 mm
01:40 PM 61.3°F16.3°C 56.8°F13.8°C 85% Calm Calm 2.0 mph3.2 kmh 29.71 in1006.1 mb 0.00 in0.0 mm 0.00 in0.0 mm 0.91 in23.1 mm
01:45 PM 61.3°F16.3°C 56.5°F13.6°C 84% Calm Calm 1.0 mph1.6 kmh 29.71 in1006.1 mb 0.00 in0.0 mm 0.00 in0.0 mm 0.91 in23.1 mm
01:50 PM 61.7°F16.5°C 56.8°F13.8°C 84% Calm Calm 1.0 mph1.6 kmh 29.71 in1006.1 mb 0.00 in0.0 mm 0.00 in0.0 mm 0.91 in23.1 mm
01:55 PM 61.9°F16.6°C 56.7°F13.7°C 83% Calm Calm 1.0 mph1.6 kmh 29.71 in1006.1 mb 0.00 in0.0 mm 0.00 in0.0 mm 0.91 in23.1 mm
02:00 PM 61.9°F16.6°C 56.7°F13.7°C 83% Calm Calm 1.0 mph1.6 kmh 29.71 in1006.1 mb 0.00 in0.0 mm 0.00 in0.0 mm 0.91 in23.1 mm
02:05 PM 61.9°F16.6°C 56.7°F13.7°C 83% Calm Calm 3.0 mph4.8 kmh 29.72 in1006.4 mb 0.00 in0.0 mm 0.00 in0.0 mm 0.91 in23.1 mm
02:10 PM 61.9°F16.6°C 55.9°F13.3°C 81% Calm Calm 3.0 mph4.8 kmh 29.72 in1006.4 mb 0.00 in0.0 mm 0.00 in0.0 mm 0.91 in23.1 mm
02:15 PM 61.9°F16.6°C 56.3°F13.5°C 82% Calm Calm 2.0 mph3.2 kmh 29.72 in1006.4 mb 0.00 in0.0 mm 0.00 in0.0 mm 0.91 in23.1 mm
02:20 PM 61.5°F16.4°C 55.8°F13.2°C 81% Calm Calm 2.0 mph3.2 kmh 29.72 in1006.4 mb 0.00 in0.0 mm 0.00 in0.0 mm 0.91 in23.1 mm
02:25 PM 61.5°F16.4°C 56.3°F13.5°C 83% Calm Calm 2.0 mph3.2 kmh 29.72 in1006.4 mb 0.00 in0.0 mm 0.00 in0.0 mm 0.91 in23.1 mm
02:30 PM 61.7°F16.5°C 56.5°F13.6°C 83% Calm Calm 3.0 mph4.8 kmh 29.72 in1006.4 mb 0.00 in0.0 mm 0.00 in0.0 mm 0.91 in23.1 mm
02:35 PM 61.5°F16.4°C 56.1°F13.4°C 82% Calm Calm 3.0 mph4.8 kmh 29.73 in1006.8 mb 0.00 in0.0 mm 0.00 in0.0 mm 0.91 in23.1 mm
02:40 PM 61.3°F16.3°C 55.9°F13.3°C 82% Calm Calm 2.0 mph3.2 kmh 29.73 in1006.8 mb 0.00 in0.0 mm 0.00 in0.0 mm 0.91 in23.1 mm
02:45 PM 61.2°F16.2°C 55.6°F13.1°C 82% Calm Calm 1.0 mph1.6 kmh 29.73 in1006.8 mb 0.00 in0.0 mm 0.00 in0.0 mm 0.91 in23.1 mm
02:50 PM 61.3°F16.3°C 55.8°F13.2°C 82% Calm Calm 3.0 mph4.8 kmh 29.73 in1006.8 mb 0.00 in0.0 mm 0.00 in0.0 mm 0.91 in23.1 mm
02:55 PM 61.3°F16.3°C 55.9°F13.3°C 82% Calm Calm 3.0 mph4.8 kmh 29.73 in1006.8 mb 0.00 in0.0 mm 0.00 in0.0 mm 0.91 in23.1 mm
03:00 PM 61.7°F16.5°C 56.1°F13.4°C 82% Calm Calm 3.0 mph4.8 kmh 29.73 in1006.8 mb 0.00 in0.0 mm 0.00 in0.0 mm 0.91 in23.1 mm
03:05 PM 62.1°F16.7°C 56.1°F13.4°C 81% Calm Calm 2.0 mph3.2 kmh 29.73 in1006.8 mb 0.00 in0.0 mm 0.00 in0.0 mm 0.91 in23.1 mm
03:10 PM 62.2°F16.8°C 56.1°F13.4°C 80% Calm Calm 3.0 mph4.8 kmh 29.73 in1006.8 mb 0.00 in0.0 mm 0.00 in0.0 mm 0.91 in23.1 mm
03:15 PM 62.2°F16.8°C 56.1°F13.4°C 80% Calm Calm 3.0 mph4.8 kmh 29.73 in1006.8 mb 0.00 in0.0 mm 0.00 in0.0 mm 0.91 in23.1 mm
03:20 PM 62.2°F16.8°C 55.8°F13.2°C 79% Calm Calm 3.0 mph4.8 kmh 29.73 in1006.8 mb 0.00 in0.0 mm 0.00 in0.0 mm 0.91 in23.1 mm
03:25 PM 62.2°F16.8°C 55.6°F13.1°C 79% Calm Calm 3.0 mph4.8 kmh 29.73 in1006.8 mb 0.00 in0.0 mm 0.00 in0.0 mm 0.91 in23.1 mm
03:30 PM 61.9°F16.6°C 55.6°F13.1°C 80% Calm Calm 2.0 mph3.2 kmh 29.73 in1006.8 mb 0.00 in0.0 mm 0.00 in0.0 mm 0.91 in23.1 mm
03:35 PM 61.9°F16.6°C 55.9°F13.3°C 81% Calm Calm 2.0 mph3.2 kmh 29.73 in1006.8 mb 0.00 in0.0 mm 0.00 in0.0 mm 0.91 in23.1 mm
03:40 PM 61.5°F16.4°C 55.8°F13.2°C 81% Calm Calm 3.0 mph4.8 kmh 29.73 in1006.8 mb 0.00 in0.0 mm 0.00 in0.0 mm 0.91 in23.1 mm
03:45 PM 61.3°F16.3°C 55.9°F13.3°C 82% Calm Calm 3.0 mph4.8 kmh 29.73 in1006.8 mb 0.00 in0.0 mm 0.00 in0.0 mm 0.91 in23.1 mm
03:50 PM 61.3°F16.3°C 55.8°F13.2°C 82% Calm Calm 3.0 mph4.8 kmh 29.73 in1006.8 mb 0.00 in0.0 mm 0.00 in0.0 mm 0.91 in23.1 mm
03:55 PM 61.2°F16.2°C 55.6°F13.1°C 82% Calm Calm 2.0 mph3.2 kmh 29.73 in1006.8 mb 0.00 in0.0 mm 0.00 in0.0 mm 0.91 in23.1 mm
04:00 PM 61.2°F16.2°C 55.6°F13.1°C 82% Calm Calm 4.0 mph6.4 kmh 29.73 in1006.8 mb 0.00 in0.0 mm 0.00 in0.0 mm 0.91 in23.1 mm
04:05 PM 61.0°F16.1°C 55.4°F13.0°C 82% 1.0 mph WSW1.6 kmh WSW 4.0 mph6.4 kmh 29.73 in1006.8 mb 0.00 in0.0 mm 0.00 in0.0 mm 0.91 in23.1 mm
04:10 PM 61.0°F16.1°C 55.4°F13.0°C 82% Calm Calm 3.0 mph4.8 kmh 29.73 in1006.8 mb 0.00 in0.0 mm 0.00 in0.0 mm 0.91 in23.1 mm
04:15 PM 61.0°F16.1°C 55.8°F13.2°C 83% Calm Calm 3.0 mph4.8 kmh 29.74 in1007.1 mb 0.00 in0.0 mm 0.00 in0.0 mm 0.91 in23.1 mm
04:20 PM 60.8°F16.0°C 55.6°F13.1°C 83% Calm Calm 3.0 mph4.8 kmh 29.74 in1007.1 mb 0.00 in0.0 mm 0.00 in0.0 mm 0.91 in23.1 mm
04:25 PM 60.8°F16.0°C 55.6°F13.1°C 83% Calm Calm 1.0 mph1.6 kmh 29.74 in1007.1 mb 0.00 in0.0 mm 0.00 in0.0 mm 0.91 in23.1 mm
04:30 PM 60.8°F16.0°C 55.6°F13.1°C 83% Calm Calm 2.0 mph3.2 kmh 29.74 in1007.1 mb 0.00 in0.0 mm 0.00 in0.0 mm 0.91 in23.1 mm
04:35 PM 60.6°F15.9°C 55.6°F13.1°C 83% Calm Calm 2.0 mph3.2 kmh 29.74 in1007.1 mb 0.00 in0.0 mm 0.00 in0.0 mm 0.91 in23.1 mm
04:40 PM 60.4°F15.8°C 55.6°F13.1°C 84% Calm Calm 2.0 mph3.2 kmh 29.74 in1007.1 mb 0.00 in0.0 mm 0.00 in0.0 mm 0.91 in23.1 mm
04:45 PM 60.4°F15.8°C 55.6°F13.1°C 84% Calm Calm 2.0 mph3.2 kmh 29.74 in1007.1 mb 0.00 in0.0 mm 0.00 in0.0 mm 0.91 in23.1 mm
04:50 PM 60.4°F15.8°C 55.9°F13.3°C 85% Calm Calm 1.0 mph1.6 kmh 29.74 in1007.1 mb 0.00 in0.0 mm 0.00 in0.0 mm 0.91 in23.1 mm
04:55 PM 60.4°F15.8°C 55.6°F13.1°C 84% Calm Calm 1.0 mph1.6 kmh 29.74 in1007.1 mb 0.00 in0.0 mm 0.00 in0.0 mm 0.91 in23.1 mm
05:00 PM 60.3°F15.7°C 55.0°F12.8°C 83% Calm Calm 2.0 mph3.2 kmh 29.74 in1007.1 mb 0.00 in0.0 mm 0.00 in0.0 mm 0.91 in23.1 mm
05:05 PM 60.1°F15.6°C 55.2°F12.9°C 84% Calm Calm 2.0 mph3.2 kmh 29.74 in1007.1 mb 0.00 in0.0 mm 0.00 in0.0 mm 0.91 in23.1 mm
05:10 PM 60.1°F15.6°C 54.9°F12.7°C 83% Calm Calm 1.0 mph1.6 kmh 29.74 in1007.1 mb 0.00 in0.0 mm 0.00 in0.0 mm 0.91 in23.1 mm
05:15 PM 59.9°F15.5°C 55.0°F12.8°C 84% Calm Calm 1.0 mph1.6 kmh 29.74 in1007.1 mb 0.00 in0.0 mm 0.00 in0.0 mm 0.91 in23.1 mm
05:20 PM 59.7°F15.4°C 55.0°F12.8°C 84% Calm Calm -- 29.74 in1007.1 mb 0.00 in0.0 mm 0.00 in0.0 mm 0.91 in23.1 mm
05:25 PM 59.7°F15.4°C 54.9°F12.7°C 84% Calm Calm -- 29.75 in1007.5 mb 0.00 in0.0 mm 0.00 in0.0 mm 0.91 in23.1 mm
05:30 PM 59.5°F15.3°C 54.7°F12.6°C 84% Calm Calm -- 29.75 in1007.5 mb 0.00 in0.0 mm 0.00 in0.0 mm 0.91 in23.1 mm
05:35 PM 59.4°F15.2°C 54.9°F12.7°C 85% Calm Calm -- 29.75 in1007.5 mb 0.00 in0.0 mm 0.00 in0.0 mm 0.91 in23.1 mm
05:40 PM 59.2°F15.1°C 54.3°F12.4°C 84% Calm Calm -- 29.75 in1007.5 mb 0.00 in0.0 mm 0.00 in0.0 mm 0.91 in23.1 mm
05:45 PM 59.2°F15.1°C 55.0°F12.8°C 86% Calm Calm -- 29.75 in1007.5 mb 0.00 in0.0 mm 0.00 in0.0 mm 0.91 in23.1 mm
05:50 PM 59.0°F15.0°C 54.9°F12.7°C 86% Calm Calm -- 29.75 in1007.5 mb 0.00 in0.0 mm 0.00 in0.0 mm 0.91 in23.1 mm
05:55 PM 58.8°F14.9°C 54.7°F12.6°C 86% Calm Calm -- 29.75 in1007.5 mb 0.00 in0.0 mm 0.00 in0.0 mm 0.91 in23.1 mm
06:00 PM 58.6°F14.8°C 54.5°F12.5°C 86% Calm Calm -- 29.75 in1007.5 mb 0.00 in0.0 mm 0.00 in0.0 mm 0.91 in23.1 mm
06:05 PM 58.5°F14.7°C 54.5°F12.5°C 87% Calm Calm -- 29.75 in1007.5 mb 0.00 in0.0 mm 0.00 in0.0 mm 0.91 in23.1 mm
06:10 PM 58.5°F14.7°C 54.9°F12.7°C 88% Calm Calm -- 29.76 in1007.8 mb 0.00 in0.0 mm 0.00 in0.0 mm 0.91 in23.1 mm
06:15 PM 58.3°F14.6°C 55.0°F12.8°C 89% Calm Calm -- 29.76 in1007.8 mb 0.00 in0.0 mm 0.00 in0.0 mm 0.91 in23.1 mm
06:20 PM 57.9°F14.4°C 54.7°F12.6°C 89% Calm Calm -- 29.76 in1007.8 mb 0.00 in0.0 mm 0.00 in0.0 mm 0.91 in23.1 mm
06:25 PM 57.7°F14.3°C 54.5°F12.5°C 89% Calm Calm 2.0 mph3.2 kmh 29.76 in1007.8 mb 0.00 in0.0 mm 0.00 in0.0 mm 0.91 in23.1 mm
06:30 PM 57.7°F14.3°C 53.6°F12.0°C 86% 1.0 mph W1.6 kmh W 5.0 mph8.0 kmh 29.77 in1008.1 mb 0.00 in0.0 mm 0.00 in0.0 mm 0.91 in23.1 mm
06:35 PM 57.7°F14.3°C 52.3°F11.3°C 82% 2.0 mph WNW3.2 kmh WNW 10.0 mph16.1 kmh 29.77 in1008.1 mb 0.00 in0.0 mm 0.00 in0.0 mm 0.91 in23.1 mm
06:40 PM 57.7°F14.3°C 52.0°F11.1°C 81% 3.0 mph NW4.8 kmh NW 10.0 mph16.1 kmh 29.77 in1008.1 mb 0.00 in0.0 mm 0.00 in0.0 mm 0.91 in23.1 mm
06:45 PM 57.6°F14.2°C 51.8°F11.0°C 81% 3.0 mph NW4.8 kmh NW 10.0 mph16.1 kmh 29.77 in1008.1 mb 0.00 in0.0 mm 0.00 in0.0 mm 0.91 in23.1 mm
06:50 PM 57.2°F14.0°C 51.8°F11.0°C 82% 3.0 mph NW4.8 kmh NW 9.0 mph14.5 kmh 29.77 in1008.1 mb 0.00 in0.0 mm 0.00 in0.0 mm 0.91 in23.1 mm
06:55 PM 56.7°F13.7°C 51.6°F10.9°C 83% 3.0 mph NW4.8 kmh NW 9.0 mph14.5 kmh 29.77 in1008.1 mb 0.00 in0.0 mm 0.00 in0.0 mm 0.91 in23.1 mm
07:00 PM 56.3°F13.5°C 51.4°F10.8°C 84% 2.0 mph NW3.2 kmh NW 9.0 mph14.5 kmh 29.78 in1008.5 mb 0.00 in0.0 mm 0.00 in0.0 mm 0.91 in23.1 mm
07:05 PM 56.1°F13.4°C 51.6°F10.9°C 85% 1.0 mph NW1.6 kmh NW 9.0 mph14.5 kmh 29.78 in1008.5 mb 0.00 in0.0 mm 0.00 in0.0 mm 0.91 in23.1 mm
07:10 PM 55.9°F13.3°C 51.4°F10.8°C 85% 1.0 mph NW1.6 kmh NW 4.0 mph6.4 kmh 29.78 in1008.5 mb 0.00 in0.0 mm 0.00 in0.0 mm 0.91 in23.1 mm
07:15 PM 55.8°F13.2°C 51.6°F10.9°C 86% 1.0 mph NW1.6 kmh NW 4.0 mph6.4 kmh 29.78 in1008.5 mb 0.00 in0.0 mm 0.00 in0.0 mm 0.91 in23.1 mm
07:20 PM 55.6°F13.1°C 51.4°F10.8°C 86% 1.0 mph NW1.6 kmh NW 5.0 mph8.0 kmh 29.78 in1008.5 mb 0.00 in0.0 mm 0.00 in0.0 mm 0.91 in23.1 mm
07:25 PM 55.6°F13.1°C 51.6°F10.9°C 87% 1.0 mph NW1.6 kmh NW 5.0 mph8.0 kmh 29.78 in1008.5 mb 0.00 in0.0 mm 0.00 in0.0 mm 0.91 in23.1 mm
07:30 PM 55.4°F13.0°C 51.6°F10.9°C 87% 1.0 mph NW1.6 kmh NW 5.0 mph8.0 kmh 29.78 in1008.5 mb 0.00 in0.0 mm 0.00 in0.0 mm 0.91 in23.1 mm
07:35 PM 55.2°F12.9°C 51.8°F11.0°C 88% 1.0 mph NW1.6 kmh NW 5.0 mph8.0 kmh 29.79 in1008.8 mb 0.00 in0.0 mm 0.00 in0.0 mm 0.91 in23.1 mm
07:40 PM 55.4°F13.0°C 52.2°F11.2°C 89% Calm Calm 3.0 mph4.8 kmh 29.79 in1008.8 mb 0.00 in0.0 mm 0.00 in0.0 mm 0.91 in23.1 mm
07:45 PM 55.2°F12.9°C 52.2°F11.2°C 89% Calm Calm 2.0 mph3.2 kmh 29.79 in1008.8 mb 0.00 in0.0 mm 0.00 in0.0 mm 0.91 in23.1 mm
07:50 PM 55.2°F12.9°C 52.3°F11.3°C 90% Calm Calm -- 29.79 in1008.8 mb 0.01 in0.3 mm 0.12 in3.0 mm 0.92 in23.4 mm
07:55 PM 55.0°F12.8°C 52.2°F11.2°C 90% Calm Calm -- 29.79 in1008.8 mb 0.01 in0.3 mm 0.00 in0.0 mm 0.92 in23.4 mm
08:00 PM 55.0°F12.8°C 52.5°F11.4°C 91% Calm Calm -- 29.80 in1009.1 mb 0.01 in0.3 mm 0.00 in0.0 mm 0.92 in23.4 mm
08:05 PM 54.7°F12.6°C 52.2°F11.2°C 91% Calm Calm -- 29.80 in1009.1 mb 0.01 in0.3 mm 0.00 in0.0 mm 0.92 in23.4 mm
08:10 PM 54.5°F12.5°C 52.0°F11.1°C 91% Calm Calm -- 29.80 in1009.1 mb 0.01 in0.3 mm 0.00 in0.0 mm 0.92 in23.4 mm
08:15 PM 54.3°F12.4°C 51.8°F11.0°C 91% Calm Calm -- 29.80 in1009.1 mb 0.01 in0.3 mm 0.00 in0.0 mm 0.92 in23.4 mm
08:20 PM 54.1°F12.3°C 52.0°F11.1°C 92% Calm Calm -- 29.80 in1009.1 mb 0.01 in0.3 mm 0.00 in0.0 mm 0.92 in23.4 mm
08:25 PM 54.3°F12.4°C 52.2°F11.2°C 92% Calm Calm -- 29.80 in1009.1 mb 0.01 in0.3 mm 0.00 in0.0 mm 0.92 in23.4 mm
08:30 PM 54.5°F12.5°C 52.2°F11.2°C 92% Calm Calm -- 29.80 in1009.1 mb 0.01 in0.3 mm 0.00 in0.0 mm 0.92 in23.4 mm
08:35 PM 54.7°F12.6°C 52.3°F11.3°C 92% Calm Calm -- 29.80 in1009.1 mb 0.01 in0.3 mm 0.00 in0.0 mm 0.92 in23.4 mm
08:40 PM 54.5°F12.5°C 52.5°F11.4°C 93% Calm Calm -- 29.80 in1009.1 mb 0.01 in0.3 mm 0.00 in0.0 mm 0.92 in23.4 mm
08:45 PM 54.3°F12.4°C 52.3°F11.3°C 93% Calm Calm -- 29.81 in1009.5 mb 0.01 in0.3 mm 0.00 in0.0 mm 0.92 in23.4 mm
08:50 PM 54.5°F12.5°C 52.5°F11.4°C 93% Calm Calm -- 29.81 in1009.5 mb 0.00 in0.0 mm 0.00 in0.0 mm 0.92 in23.4 mm
08:55 PM 54.5°F12.5°C 52.5°F11.4°C 93% Calm Calm -- 29.81 in1009.5 mb 0.00 in0.0 mm 0.00 in0.0 mm 0.92 in23.4 mm
09:00 PM 54.7°F12.6°C 52.9°F11.6°C 94% Calm Calm -- 29.81 in1009.5 mb 0.00 in0.0 mm 0.00 in0.0 mm 0.92 in23.4 mm
09:05 PM 54.3°F12.4°C 52.7°F11.5°C 94% Calm Calm -- 29.82 in1009.8 mb 0.00 in0.0 mm 0.00 in0.0 mm 0.92 in23.4 mm
09:10 PM 54.1°F12.3°C 52.5°F11.4°C 94% Calm Calm -- 29.82 in1009.8 mb 0.00 in0.0 mm 0.00 in0.0 mm 0.92 in23.4 mm
09:15 PM 54.1°F12.3°C 52.3°F11.3°C 94% Calm Calm -- 29.82 in1009.8 mb 0.00 in0.0 mm 0.00 in0.0 mm 0.92 in23.4 mm
09:20 PM 54.0°F12.2°C 52.3°F11.3°C 94% Calm Calm -- 29.82 in1009.8 mb 0.00 in0.0 mm 0.00 in0.0 mm 0.92 in23.4 mm
09:25 PM 54.0°F12.2°C 52.3°F11.3°C 94% Calm Calm -- 29.82 in1009.8 mb 0.00 in0.0 mm 0.00 in0.0 mm 0.92 in23.4 mm
09:30 PM 54.0°F12.2°C 52.3°F11.3°C 94% Calm Calm 2.0 mph3.2 kmh 29.82 in1009.8 mb 0.00 in0.0 mm 0.00 in0.0 mm 0.92 in23.4 mm
09:35 PM 54.0°F12.2°C 52.2°F11.2°C 94% 1.0 mph SW1.6 kmh SW 4.0 mph6.4 kmh 29.82 in1009.8 mb 0.00 in0.0 mm 0.00 in0.0 mm 0.92 in23.4 mm
09:40 PM 54.0°F12.2°C 52.2°F11.2°C 94% 1.0 mph SW1.6 kmh SW 4.0 mph6.4 kmh 29.83 in1010.2 mb 0.00 in0.0 mm 0.00 in0.0 mm 0.92 in23.4 mm
09:45 PM 54.0°F12.2°C 52.0°F11.1°C 93% Calm Calm 2.0 mph3.2 kmh 29.83 in1010.2 mb 0.00 in0.0 mm 0.00 in0.0 mm 0.92 in23.4 mm
09:50 PM 54.0°F12.2°C 52.0°F11.1°C 93% Calm Calm 1.0 mph1.6 kmh 29.83 in1010.2 mb 0.00 in0.0 mm 0.00 in0.0 mm 0.92 in23.4 mm
09:55 PM 54.0°F12.2°C 52.0°F11.1°C 93% Calm Calm 3.0 mph4.8 kmh 29.83 in1010.2 mb 0.00 in0.0 mm 0.00 in0.0 mm 0.92 in23.4 mm
10:00 PM 54.0°F12.2°C 51.8°F11.0°C 92% 1.0 mph SW1.6 kmh SW 3.0 mph4.8 kmh 29.83 in1010.2 mb 0.00 in0.0 mm 0.00 in0.0 mm 0.92 in23.4 mm
10:05 PM 54.0°F12.2°C 51.8°F11.0°C 92% 1.0 mph SW1.6 kmh SW 3.0 mph4.8 kmh 29.83 in1010.2 mb 0.00 in0.0 mm 0.00 in0.0 mm 0.92 in23.4 mm
10:10 PM 54.0°F12.2°C 51.6°F10.9°C 92% Calm Calm 1.0 mph1.6 kmh 29.83 in1010.2 mb 0.00 in0.0 mm 0.00 in0.0 mm 0.92 in23.4 mm
10:15 PM 54.0°F12.2°C 51.6°F10.9°C 92% Calm Calm 1.0 mph1.6 kmh 29.84 in1010.5 mb 0.00 in0.0 mm 0.00 in0.0 mm 0.92 in23.4 mm
10:20 PM 54.0°F12.2°C 51.3°F10.7°C 91% Calm Calm 1.0 mph1.6 kmh 29.84 in1010.5 mb 0.00 in0.0 mm 0.00 in0.0 mm 0.92 in23.4 mm
10:25 PM 54.0°F12.2°C 51.6°F10.9°C 92% Calm Calm 3.0 mph4.8 kmh 29.84 in1010.5 mb 0.00 in0.0 mm 0.00 in0.0 mm 0.92 in23.4 mm
10:30 PM 53.8°F12.1°C 51.6°F10.9°C 92% Calm Calm 3.0 mph4.8 kmh 29.84 in1010.5 mb 0.00 in0.0 mm 0.00 in0.0 mm 0.92 in23.4 mm
10:35 PM 53.8°F12.1°C 51.6°F10.9°C 92% Calm Calm 2.0 mph3.2 kmh 29.84 in1010.5 mb 0.00 in0.0 mm 0.00 in0.0 mm 0.92 in23.4 mm
10:40 PM 53.8°F12.1°C 51.3°F10.7°C 91% Calm Calm 1.0 mph1.6 kmh 29.84 in1010.5 mb 0.00 in0.0 mm 0.00 in0.0 mm 0.92 in23.4 mm
10:45 PM 53.8°F12.1°C 51.3°F10.7°C 91% Calm Calm 3.0 mph4.8 kmh 29.84 in1010.5 mb 0.00 in0.0 mm 0.00 in0.0 mm 0.92 in23.4 mm
10:50 PM 53.8°F12.1°C 51.3°F10.7°C 91% 1.0 mph SW1.6 kmh SW 3.0 mph4.8 kmh 29.84 in1010.5 mb 0.00 in0.0 mm 0.00 in0.0 mm 0.92 in23.4 mm
10:55 PM 53.8°F12.1°C 51.1°F10.6°C 91% 1.0 mph SW1.6 kmh SW 3.0 mph4.8 kmh 29.84 in1010.5 mb 0.00 in0.0 mm 0.00 in0.0 mm 0.92 in23.4 mm
11:00 PM 53.6°F12.0°C 51.3°F10.7°C 92% Calm Calm 2.0 mph3.2 kmh 29.84 in1010.5 mb 0.00 in0.0 mm 0.00 in0.0 mm 0.40 in10.2 mm
11:05 PM 53.6°F12.0°C 51.3°F10.7°C 92% Calm Calm 1.0 mph1.6 kmh 29.84 in1010.5 mb 0.00 in0.0 mm 0.00 in0.0 mm 0.40 in10.2 mm
11:10 PM 53.4°F11.9°C 51.3°F10.7°C 92% Calm Calm 1.0 mph1.6 kmh 29.84 in1010.5 mb 0.00 in0.0 mm 0.00 in0.0 mm 0.40 in10.2 mm
11:15 PM 53.4°F11.9°C 51.3°F10.7°C 92% Calm Calm 1.0 mph1.6 kmh 29.84 in1010.5 mb 0.00 in0.0 mm 0.00 in0.0 mm 0.40 in10.2 mm
11:20 PM 53.4°F11.9°C 51.3°F10.7°C 92% Calm Calm 1.0 mph1.6 kmh 29.84 in1010.5 mb 0.00 in0.0 mm 0.00 in0.0 mm 0.40 in10.2 mm
11:25 PM 53.4°F11.9°C 51.3°F10.7°C 92% Calm Calm 2.0 mph3.2 kmh 29.84 in1010.5 mb 0.00 in0.0 mm 0.00 in0.0 mm 0.40 in10.2 mm
11:30 PM 53.4°F11.9°C 51.3°F10.7°C 92% Calm Calm 2.0 mph3.2 kmh 29.84 in1010.5 mb 0.00 in0.0 mm 0.00 in0.0 mm 0.40 in10.2 mm
11:35 PM 53.4°F11.9°C 51.4°F10.8°C 93% Calm Calm 1.0 mph1.6 kmh 29.84 in1010.5 mb 0.00 in0.0 mm 0.00 in0.0 mm 0.40 in10.2 mm
11:40 PM 53.4°F11.9°C 51.4°F10.8°C 93% Calm Calm 1.0 mph1.6 kmh 29.84 in1010.5 mb 0.00 in0.0 mm 0.00 in0.0 mm 0.40 in10.2 mm
11:45 PM 53.4°F11.9°C 51.4°F10.8°C 93% Calm Calm 2.0 mph3.2 kmh 29.84 in1010.5 mb 0.00 in0.0 mm 0.00 in0.0 mm 0.40 in10.2 mm
11:50 PM 53.4°F11.9°C 51.4°F10.8°C 93% Calm Calm 2.0 mph3.2 kmh 29.84 in1010.5 mb 0.00 in0.0 mm 0.00 in0.0 mm 0.40 in10.2 mm
11:55 PM 53.4°F11.9°C 51.4°F10.8°C 93% Calm Calm 1.0 mph1.6 kmh 29.84 in1010.5 mb 0.00 in0.0 mm 0.00 in0.0 mm 0.40 in10.2 mm